Latest Weather Observations for Aireys Inlet

IDV60801

Issued at 12:35 pm EST Wednesday 30 July 2014 (issued every 30 minutes, with the page automatically refreshed every 10 minutes)

About weather observations | Map of weather stations | Latest weather observations for VIC | Other Formats
Station Details ID: 090180 Name: AIREYS INLET Lat: -38.46 Lon: 144.09 Height: 95.0 m
Data from the previous 72 hours. | See also: Recent months at Aireys Inlet
Date/Time
EST
Temp
°C
App
Temp
°C
Dew
Point
Rel
Hum
%
Delta-T
°C
Wind Press
QNH
hPa
Press
MSL
hPa
Rain
since 9 am
mm
Dir
 
Spd
km/h
Gust
km/h
Spd
kts
Gust
kts
30/12:30pm 14.9 10.3 12.2 84 1.5 NW 28 48 15 26 - - 0.0
30/12:11pm 13.6 8.8 11.7 88 1.0 NW 28 52 15 28 - - 0.0
30/12:00pm 14.0 11.2 11.5 85 1.3 NW 17 37 9 20 - - 0.0
30/11:30am 14.4 10.9 10.8 79 1.9 NW 20 33 11 18 - - 0.0
30/11:00am 14.1 9.0 10.7 80 1.8 NW 28 48 15 26 - - 0.0
30/10:59am 14.1 8.6 10.7 80 1.8 NW 30 48 16 26 - - 0.0
30/10:30am 14.2 10.4 11.0 81 1.7 NNW 22 37 12 20 - - 0.0
30/10:00am 13.1 9.5 10.5 84 1.4 NW 20 35 11 19 - - 0.0
30/09:30am 12.7 9.6 10.2 85 1.3 NW 17 30 9 16 - - 0.0
30/09:00am 11.9 10.0 9.1 83 1.4 NNW 9 19 5 10 - - 2.0
30/08:30am 11.4 8.7 9.0 85 1.2 NNW 13 24 7 13 - - 2.0
30/08:00am 11.5 8.6 9.6 88 1.0 NNW 15 28 8 15 - - 2.0
30/07:30am 11.5 8.3 9.9 90 0.8 NNW 17 24 9 13 - - 2.0
30/07:00am 11.7 9.3 9.9 89 0.9 NNW 13 24 7 13 - - 2.0
30/06:30am 11.7 9.3 9.9 89 0.9 NNW 13 30 7 16 - - 2.0
30/06:00am 11.8 9.7 9.9 88 1.0 NNW 11 20 6 11 - - 2.0
30/05:30am 12.0 9.1 9.7 86 1.2 NW 15 30 8 16 - - 2.0
30/05:00am 12.0 10.2 9.6 85 1.2 NW 9 17 5 9 - - 2.0
30/04:30am 12.0 9.9 9.7 86 1.2 WNW 11 22 6 12 - - 2.0
30/04:00am 12.1 10.0 9.7 85 1.2 WNW 11 20 6 11 - - 2.0
30/03:30am 12.4 10.0 10.0 85 1.2 WNW 13 26 7 14 - - 2.0
30/03:00am 12.7 9.5 10.1 84 1.3 WNW 17 26 9 14 - - 2.0
30/02:30am 12.6 11.5 10.5 87 1.1 NW 7 13 4 7 - - 2.0
30/02:00am 12.7 11.2 10.4 86 1.2 NW 9 22 5 12 - - 2.0
30/01:30am 12.4 11.3 10.6 89 0.9 W 7 20 4 11 - - 2.0
30/01:00am 12.2 9.3 11.1 93 0.6 WNW 17 28 9 15 - - 2.0
30/12:30am 12.6 9.0 10.7 88 1.0 WNW 20 37 11 20 - - 2.0
30/12:00am 12.4 7.4 10.8 90 0.8 WNW 28 54 15 29 - - 2.0
 
Date/Time
EST
Temp
°C
App
Temp
°C
Dew
Point
Rel
Hum
%
Delta-T
°C
Wind Press
QNH
hPa
Press
MSL
hPa
Rain
since 9 am
mm
Dir
 
Spd
km/h
Gust
km/h
Spd
kts
Gust
kts
29/11:45pm 12.6 7.7 11.2 91 0.7 WNW 28 63 15 34 - - 2.0
29/11:30pm 12.5 9.3 12.0 97 0.3 WNW 20 41 11 22 - - 1.8
29/11:00pm 12.9 8.8 11.5 91 0.7 WNW 24 50 13 27 - - 1.4
29/10:30pm 13.1 7.2 10.6 85 1.3 WNW 32 56 17 30 - - 1.4
29/10:00pm 12.9 7.1 10.8 87 1.1 WNW 32 57 17 31 - - 1.4
29/09:30pm 13.0 7.4 11.4 90 0.9 WNW 32 59 17 32 - - 1.4
29/09:00pm 12.8 7.3 10.7 87 1.1 WNW 30 54 16 29 - - 1.4
29/08:34pm 13.0 7.7 11.1 88 1.0 WNW 30 50 16 27 - - 1.4
29/08:30pm 12.9 7.6 11.1 89 1.0 WNW 30 48 16 26 - - 1.4
29/08:00pm 13.0 6.1 11.6 91 0.7 WNW 39 67 21 36 - - 1.4
29/07:30pm 13.6 5.3 11.5 87 1.1 NW 46 74 25 40 - - 0.6
29/07:00pm 14.2 7.2 11.2 82 1.6 NW 39 67 21 36 - - 0.6
29/06:30pm 14.2 7.2 11.2 82 1.6 NW 39 63 21 34 - - 0.6
29/06:00pm 13.4 7.0 12.0 91 0.8 NW 37 59 20 32 - - 0.6
29/05:30pm 13.2 4.8 12.3 94 0.5 NW 48 76 26 41 - - 0.6
29/05:00pm 13.9 6.2 11.6 86 1.2 NW 43 67 23 36 - - 0.4
29/04:30pm 14.1 5.4 11.3 83 1.5 NW 48 78 26 42 - - 0.4
29/04:00pm 13.8 4.1 11.8 88 1.1 NW 54 82 29 44 - - 0.4
29/03:30pm 13.9 4.2 11.9 88 1.1 NW 54 87 29 47 - - 0.2
29/03:00pm 14.3 5.4 11.8 85 1.3 NW 50 74 27 40 - - 0.2
29/02:30pm 13.7 5.2 12.1 90 0.9 WNW 48 82 26 44 - - 0.2
29/02:00pm 13.8 3.1 11.5 86 1.2 NW 59 85 32 46 - - 0.0
29/01:30pm 13.7 3.5 11.4 86 1.2 NW 56 91 30 49 - - 0.0
29/01:00pm 14.9 3.9 10.7 76 2.2 NW 59 87 32 47 - - 0.0
29/12:30pm 14.5 3.9 9.9 74 2.4 NW 56 89 30 48 - - 0.0
29/12:00pm 13.7 3.6 10.3 80 1.8 NW 54 78 29 42 - - 0.0
29/11:45am 14.1 2.6 10.3 78 2.0 NW 61 85 33 46 - - 0.0
29/11:30am 14.3 6.5 9.9 75 2.3 NW 41 65 22 35 - - 0.0
29/11:00am 13.4 6.2 9.3 76 2.1 NW 37 74 20 40 - - 0.0
29/10:30am 13.5 6.4 9.4 76 2.1 NW 37 70 20 38 - - 0.0
29/10:00am 13.2 7.3 8.9 75 2.2 NW 30 72 16 39 - - 0.0
29/09:30am 12.5 4.1 8.8 78 1.9 NW 43 67 23 36 - - 0.0
29/09:00am 12.2 3.6 8.3 77 1.9 NW 43 67 23 36 - - 0.0
29/08:30am 11.9 4.5 8.4 79 1.7 NW 37 69 20 37 - - 0.0
29/08:00am 11.6 5.9 8.3 80 1.6 NW 28 57 15 31 - - 0.0
29/07:52am 11.4 4.4 8.3 81 1.5 NW 35 57 19 31 - - 0.0
29/07:30am 11.6 8.7 8.1 79 1.7 NNW 13 37 7 20 - - 0.0
29/07:01am 11.0 4.9 8.1 82 1.4 NNW 30 50 16 27 - - 0.0
29/07:00am 11.0 4.5 8.1 82 1.4 NNW 32 50 17 27 - - 0.0
29/06:30am 11.4 0.7 7.9 79 1.7 NW 54 83 29 45 - - 0.0
29/06:00am 11.5 -0.2 7.8 78 1.8 NW 59 95 32 51 - - 0.0
29/05:30am 11.8 0.7 7.9 77 1.9 NW 56 96 30 52 - - 0.0
29/05:00am 11.9 0.8 8.0 77 1.9 NW 56 83 30 45 - - 0.0
29/04:30am 12.1 0.1 8.0 76 2.0 NW 61 96 33 52 - - 0.0
29/04:00am 12.0 0.9 8.1 77 1.9 NW 56 80 30 43 - - 0.0
29/03:30am 12.4 2.1 8.1 75 2.1 NW 52 76 28 41 - - 0.0
29/03:00am 12.4 3.2 8.1 75 2.1 NW 46 74 25 40 - - 0.0
29/02:30am 12.1 4.6 7.8 75 2.1 NW 37 57 20 31 - - 0.0
29/02:15am 12.1 6.2 7.6 74 2.2 NW 28 56 15 30 - - 0.0
29/02:00am 11.9 6.4 7.4 74 2.2 NW 26 44 14 24 - - 0.0
29/01:57am 11.9 5.6 7.4 74 2.2 NW 30 44 16 24 - - 0.0
29/01:30am 11.8 9.4 7.1 73 2.3 N 9 26 5 14 - - 0.0
29/01:00am 11.7 9.3 6.8 72 2.3 NNE 9 20 5 11 - - 0.0
29/12:30am 11.2 8.7 6.7 74 2.1 NE 9 15 5 8 - - 0.0
29/12:00am 11.7 9.3 7.0 73 2.3 N 9 19 5 10 - - 0.0
 
Date/Time
EST
Temp
°C
App
Temp
°C
Dew
Point
Rel
Hum
%
Delta-T
°C
Wind Press
QNH
hPa
Press
MSL
hPa
Rain
since 9 am
mm
Dir
 
Spd
km/h
Gust
km/h
Spd
kts
Gust
kts
28/11:30pm 11.7 9.4 7.4 75 2.1 N 9 20 5 11 - - 0.0
28/11:00pm 11.9 8.4 7.4 74 2.2 NNW 15 22 8 12 - - 0.0
28/10:30pm 12.2 8.1 7.7 74 2.2 NNW 19 46 10 25 - - 0.0
28/10:00pm 12.3 7.9 7.6 73 2.3 NNW 20 37 11 20 - - 0.0
28/09:30pm 12.6 6.7 7.7 72 2.4 NW 28 56 15 30 - - 0.0
28/09:09pm 12.6 6.7 7.7 72 2.4 NW 28 46 15 25 - - 0.0
28/09:00pm 12.6 7.1 7.5 71 2.5 NW 26 44 14 24 - - 0.0
28/08:30pm 12.6 7.9 7.7 72 2.4 NW 22 35 12 19 - - 0.0
28/08:00pm 12.5 10.7 7.8 73 2.3 NNW 7 15 4 8 - - 0.0
28/07:30pm 12.5 10.7 8.0 74 2.2 ESE 7 13 4 7 - - 0.0
28/07:00pm 12.8 11.7 8.5 75 2.2 E 4 9 2 5 - - 0.0
28/06:30pm 13.4 11.8 8.7 73 2.4 ESE 7 15 4 8 - - 0.0
28/06:00pm 13.9 11.9 8.5 70 2.7 NW 9 19 5 10 - - 0.0
28/05:32pm 14.1 8.2 9.1 72 2.6 NW 30 50 16 27 - - 0.0
28/05:30pm 14.0 7.7 9.0 72 2.5 NW 32 48 17 26 - - 0.0
28/05:00pm 14.6 7.0 9.2 70 2.8 NW 39 59 21 32 - - 0.0
28/04:30pm 15.1 6.4 8.3 64 3.4 NW 44 65 24 35 - - 0.0
28/04:00pm 15.3 6.6 8.3 63 3.5 NW 44 74 24 40 - - 0.0
28/03:30pm 15.5 7.0 9.2 66 3.3 NW 44 63 24 34 - - 0.0
28/03:00pm 15.4 7.0 8.9 65 3.3 NW 43 67 23 36 - - 0.0
28/02:30pm 15.8 6.8 9.0 64 3.5 NW 46 69 25 37 - - 0.0
28/02:00pm 15.7 7.5 9.6 67 3.2 NW 43 63 23 34 - - 0.0
28/01:30pm 15.7 8.6 9.4 66 3.3 NW 37 65 20 35 - - 0.0
28/01:03pm 15.9 10.5 9.6 66 3.3 NW 28 50 15 27 - - 0.0
28/01:00pm 15.7 10.7 9.4 66 3.3 NW 26 50 14 27 - - 0.0
28/12:30pm 15.1 9.6 9.2 68 3.0 NW 28 46 15 25 - - 0.0
28/12:29pm 15.0 9.5 9.1 68 3.0 NW 28 46 15 25 - - 0.0
28/12:00pm 14.5 9.7 8.9 69 2.9 NW 24 39 13 21 - - 0.0
28/11:30am 13.9 10.2 8.1 68 2.9 NNW 17 37 9 20 - - 0.0
28/11:00am 13.2 10.9 7.6 69 2.8 WNW 9 26 5 14 - - 0.0
28/10:30am 11.2 7.6 6.9 75 2.1 NE 15 22 8 12 - - 0.0
28/10:00am 10.0 6.7 6.2 77 1.8 NE 13 20 7 11 - - 0.0
28/09:30am 9.9 6.9 5.9 76 1.8 NNE 11 17 6 9 - - 0.0
28/09:00am 10.2 6.4 5.6 73 2.1 NNE 15 22 8 12 - - 0.0
28/08:30am 9.5 5.6 5.3 75 1.9 NNE 15 20 8 11 - - 0.0
28/08:00am 8.6 4.7 5.2 79 1.5 NNE 15 19 8 10 - - 0.0
28/07:30am 8.5 5.0 5.3 80 1.4 NE 13 19 7 10 - - 0.0
28/07:00am 8.6 5.1 5.4 80 1.4 NE 13 19 7 10 - - 0.0
28/06:30am 8.3 5.2 5.4 82 1.3 NE 11 15 6 8 - - 0.0
28/06:00am 8.8 6.1 5.4 79 1.5 ENE 9 13 5 7 - - 0.0
28/05:30am 8.8 6.1 5.4 79 1.5 ENE 9 15 5 8 - - 0.0
28/05:00am 8.8 5.3 5.5 80 1.5 ENE 13 19 7 10 - - 0.0
28/04:30am 8.6 5.2 5.7 82 1.3 NE 13 22 7 12 - - 0.0
28/04:00am 9.1 5.3 5.8 80 1.5 NE 15 24 8 13 - - 0.0
28/03:30am 8.9 5.1 6.0 82 1.3 NE 15 32 8 17 - - 0.0
28/03:00am 8.6 4.5 6.1 84 1.1 NNE 17 28 9 15 - - 0.0
28/02:30am 8.3 4.6 6.1 86 1.0 NNE 15 22 8 12 - - 0.0
28/02:00am 8.6 4.6 6.6 87 0.9 NE 17 22 9 12 - - 0.0
28/01:30am 8.5 5.6 6.6 88 0.9 NNE 11 15 6 8 - - 0.0
28/01:00am 9.0 5.8 7.0 87 0.9 N 13 15 7 8 - - 0.0
28/12:30am 9.4 6.3 7.2 86 1.0 N 13 17 7 9 - - 0.0
28/12:00am 9.7 6.2 7.3 85 1.1 N 15 20 8 11 - - 0.0
 
Date/Time
EST
Temp
°C
App
Temp
°C
Dew
Point
Rel
Hum
%
Delta-T
°C
Wind Press
QNH
hPa
Press
MSL
hPa
Rain
since 9 am
mm
Dir
 
Spd
km/h
Gust
km/h
Spd
kts
Gust
kts
27/11:30pm 9.8 6.8 7.6 86 1.1 N 13 20 7 11 - - 0.0
27/11:00pm 9.2 6.2 7.5 89 0.8 NNW 13 20 7 11 - - 0.0
27/10:30pm 9.9 5.2 7.7 86 1.1 N 22 32 12 17 - - 0.0
27/10:00pm 9.9 4.8 7.8 87 1.0 NNW 24 37 13 20 - - 0.0
27/09:30pm 10.4 6.3 7.8 84 1.3 N 19 33 10 18 - - 0.0
27/09:00pm 10.7 5.3 7.9 83 1.4 N 26 43 14 23 - - 0.0
27/08:30pm 10.8 6.5 7.9 82 1.4 N 20 33 11 18 - - 0.0
27/08:00pm 11.2 5.4 8.1 81 1.5 N 28 39 15 21 - - 0.0
27/07:30pm 11.0 6.8 8.4 84 1.3 N 20 28 11 15 - - 0.0
27/07:00pm 11.1 7.5 8.5 84 1.3 N 17 24 9 13 - - 0.0
27/06:30pm 11.4 7.9 8.6 83 1.4 N 17 24 9 13 - - 0.0
27/06:00pm 12.3 9.2 8.8 79 1.8 N 15 22 8 12 - - 0.0
27/05:30pm 12.8 9.0 9.1 78 1.9 N 19 26 10 14 - - 0.0
27/05:00pm 13.1 10.1 9.2 77 2.0 N 15 26 8 14 - - 0.0
27/04:30pm 13.5 9.2 9.2 75 2.2 N 22 32 12 17 - - 0.0
27/04:00pm 13.7 9.7 9.2 74 2.3 N 20 37 11 20 - - 0.0
27/03:30pm 13.9 10.0 8.7 71 2.6 N 19 35 10 19 - - 0.0
27/03:00pm 14.2 10.3 8.6 69 2.8 NNW 19 37 10 20 - - 0.0
27/02:30pm 14.4 10.6 9.0 70 2.8 NNW 19 35 10 19 - - 0.0
27/02:00pm 14.4 10.0 9.0 70 2.8 NNW 22 39 12 21 - - 0.0
27/01:36pm 15.0 9.7 9.8 71 2.7 NNW 28 48 15 26 - - 0.0
27/01:30pm 14.7 8.4 9.1 69 2.9 NNW 32 48 17 26 - - 0.0
27/01:00pm 14.6 6.8 9.6 72 2.6 NW 41 56 22 30 - - 0.0

Other Formats:

Comma delimited format used in spreadsheet applications
http://www.bom.gov.au/fwo/IDV60801/IDV60801.94846.axf

JavaScript Object Notation format (JSON) in row-major order
http://www.bom.gov.au/fwo/IDV60801/IDV60801.94846.json